Terminal Aerodrome Forecast
Issued by NWS

Home | Current Version | Previous Version | Text Only | Print | Product List | Glossary On
Versions: 1 2 3 4 5 6 7 8 9 10 11 12 13 14 15 16 17
759
FTUS41 KGYX 180543 AAA
TAFAUG
TAF AMD
KAUG 180543Z 1806/1906 05006KT P6SM OVC070
      TEMPO 1806/1808 3SM -SN BR BKN030 OVC090
     FM180800 05008KT 2SM -SN BR BKN025 OVC050
     FM181000 05008KT 1SM -SN BR OVC012
     FM181700 05009KT 4SM -SHSN BR BKN025 OVC040
     FM182300 05007KT 4SM BR OVC019 PROB30 1823/1824 1 1/2SM -SN BR
      OVC015=

USA.gov is the U.S. government's official web portal to all federal, state and local government web resources and services.